Time;durP1;ratioP1;P1;durP2;ratioP2;P2;SDS_P1;SDS_P2;PMS_P1;PMS_P2;Temp;Humidity;BMP_temperature;BMP_pressure;BME280_temperature;BME280_humidity;BME280_pressure;Samples;Min_cycle;Max_cycle;Signal;HPM_P1;HPM_P2
2021/10/29 00:01:21;;;;;;;44.37;28.30;;;;;;;;;;770748;182;919437;-62
2021/10/29 00:03:47;;;;;;;45.90;30.30;;;;;;;;;;767697;182;919261;-61
2021/10/29 00:06:13;;;;;;;44.73;29.47;;;;;;;;;;766873;183;919591;-62
2021/10/29 00:08:39;;;;;;;36.00;24.30;;;;;;;;;;771353;183;916516;-62
2021/10/29 00:11:04;;;;;;;43.20;29.08;;;;;;;;;;765316;183;919772;-62
2021/10/29 00:13:30;;;;;;;42.38;26.90;;;;;;;;;;761841;182;1021700;-62
2021/10/29 00:15:57;;;;;;;41.22;26.65;;;;;;;;;;769269;183;918700;-62
2021/10/29 00:18:23;;;;;;;41.67;27.77;;;;;;;;;;771808;180;918935;-61
2021/10/29 00:20:48;;;;;;;42.40;27.70;;;;;;;;;;763291;183;916793;-61
2021/10/29 00:23:14;;;;;;;51.33;29.37;;;;;;;;;;766124;183;919029;-61
2021/10/29 00:25:40;;;;;;;42.50;28.13;;;;;;;;;;771298;183;918809;-61
2021/10/29 00:28:06;;;;;;;40.10;25.80;;;;;;;;;;762204;183;1124101;-62
2021/10/29 00:30:32;;;;;;;41.15;24.25;;;;;;;;;;764480;183;919064;-62
2021/10/29 00:32:58;;;;;;;40.10;24.87;;;;;;;;;;766348;183;919552;-62
2021/10/29 00:35:24;;;;;;;40.50;24.40;;;;;;;;;;762649;183;919079;-62
2021/10/29 00:37:49;;;;;;;36.27;25.20;;;;;;;;;;764795;183;916578;-62
2021/10/29 00:40:15;;;;;;;38.40;24.60;;;;;;;;;;773589;182;918169;-61
2021/10/29 00:42:41;;;;;;;46.10;26.60;;;;;;;;;;763527;182;937370;-62
2021/10/29 00:45:07;;;;;;;39.15;25.65;;;;;;;;;;764276;183;919509;-61
2021/10/29 00:47:33;;;;;;;40.60;25.93;;;;;;;;;;765807;183;917934;-60
2021/10/29 00:49:59;;;;;;;46.73;28.20;;;;;;;;;;767122;183;919698;-61
2021/10/29 00:52:25;;;;;;;38.60;26.10;;;;;;;;;;764879;183;926984;-62
2021/10/29 00:54:51;;;;;;;36.40;24.60;;;;;;;;;;764977;183;1020592;-62
2021/10/29 00:57:17;;;;;;;33.70;23.77;;;;;;;;;;769258;183;920252;-61
2021/10/29 00:59:42;;;;;;;35.63;24.80;;;;;;;;;;765590;183;919372;-61
2021/10/29 01:02:08;;;;;;;45.53;23.67;;;;;;;;;;764196;183;921999;-62
2021/10/29 01:04:34;;;;;;;38.37;25.63;;;;;;;;;;769180;183;919084;-62
2021/10/29 01:07:00;;;;;;;42.53;25.90;;;;;;;;;;765538;183;920300;-62
2021/10/29 01:09:26;;;;;;;35.77;24.20;;;;;;;;;;764052;183;920782;-62
2021/10/29 01:11:52;;;;;;;36.45;24.90;;;;;;;;;;762137;183;919331;-61
2021/10/29 01:14:18;;;;;;;36.50;23.83;;;;;;;;;;772395;180;919350;-62
2021/10/29 01:16:43;;;;;;;32.53;25.20;;;;;;;;;;764022;182;919612;-62
2021/10/29 01:19:10;;;;;;;36.87;24.53;;;;;;;;;;765055;183;920003;-61
2021/10/29 01:21:35;;;;;;;40.90;26.13;;;;;;;;;;771542;183;914819;-61
2021/10/29 01:24:01;;;;;;;35.50;26.70;;;;;;;;;;761736;183;915661;-62
2021/10/29 01:26:27;;;;;;;37.70;24.30;;;;;;;;;;764696;183;916091;-62
2021/10/29 01:28:55;;;;;;;42.08;27.15;;;;;;;;;;771008;183;915659;-62
2021/10/29 01:31:18;;;;;;;47.40;26.40;;;;;;;;;;766715;182;916428;-62
2021/10/29 01:33:44;;;;;;;42.57;25.50;;;;;;;;;;763225;183;1024756;-61
2021/10/29 01:36:11;;;;;;;40.30;28.08;;;;;;;;;;766371;183;921367;-60
2021/10/29 01:38:36;;;;;;;40.13;26.63;;;;;;;;;;775772;181;890221;-61
2021/10/29 01:41:02;;;;;;;41.43;27.60;;;;;;;;;;764138;183;921378;-62
2021/10/29 01:43:28;;;;;;;47.83;27.87;;;;;;;;;;764245;183;919917;-61
2021/10/29 01:45:55;;;;;;;40.33;26.77;;;;;;;;;;769575;183;918960;-61
2021/10/29 01:48:21;;;;;;;44.50;28.37;;;;;;;;;;761872;183;912987;-62
2021/10/29 01:50:46;;;;;;;42.20;27.57;;;;;;;;;;763199;183;914108;-61
2021/10/29 01:53:13;;;;;;;41.53;27.87;;;;;;;;;;768747;183;909402;-62
2021/10/29 01:55:38;;;;;;;42.85;27.58;;;;;;;;;;763571;183;913872;-61
2021/10/29 01:58:04;;;;;;;44.47;29.63;;;;;;;;;;764216;183;912901;-62
2021/10/29 02:00:31;;;;;;;47.45;29.50;;;;;;;;;;768661;183;912088;-62
2021/10/29 02:02:57;;;;;;;45.97;30.77;;;;;;;;;;773693;180;924412;-62
2021/10/29 02:05:22;;;;;;;43.53;28.13;;;;;;;;;;763985;183;914953;-61
2021/10/29 02:07:48;;;;;;;46.03;28.07;;;;;;;;;;767134;183;919988;-62
2021/10/29 02:10:14;;;;;;;45.60;28.83;;;;;;;;;;765174;183;1035559;-61
2021/10/29 02:12:40;;;;;;;48.22;31.77;;;;;;;;;;764346;183;916182;-62
2021/10/29 02:15:06;;;;;;;47.60;29.10;;;;;;;;;;763682;183;919422;-61
2021/10/29 02:17:32;;;;;;;54.07;32.37;;;;;;;;;;770081;183;919478;-60
2021/10/29 02:19:58;;;;;;;48.20;29.60;;;;;;;;;;763315;183;1011883;-61
2021/10/29 02:22:24;;;;;;;52.63;31.70;;;;;;;;;;764718;183;918097;-60
2021/10/29 02:24:49;;;;;;;48.93;29.93;;;;;;;;;;769947;181;920761;-62
2021/10/29 02:27:15;;;;;;;56.90;31.07;;;;;;;;;;766648;182;917011;-61
2021/10/29 02:29:41;;;;;;;46.00;29.60;;;;;;;;;;766520;183;919511;-62
2021/10/29 02:32:07;;;;;;;47.93;30.73;;;;;;;;;;768481;182;915378;-62
2021/10/29 02:34:33;;;;;;;46.20;28.37;;;;;;;;;;769053;183;913979;-62
2021/10/29 02:36:59;;;;;;;43.67;28.50;;;;;;;;;;763798;183;919462;-61
2021/10/29 02:39:25;;;;;;;45.00;30.00;;;;;;;;;;766690;183;928026;-62
2021/10/29 02:41:51;;;;;;;44.03;29.40;;;;;;;;;;769494;183;918891;-61
2021/10/29 02:44:16;;;;;;;44.93;32.27;;;;;;;;;;761789;183;919292;-61
2021/10/29 02:46:42;;;;;;;51.72;31.20;;;;;;;;;;765527;183;921005;-61
2021/10/29 02:49:09;;;;;;;57.40;33.87;;;;;;;;;;769894;183;921028;-61
2021/10/29 02:51:35;;;;;;;46.20;30.23;;;;;;;;;;761047;183;920069;-62
2021/10/29 02:54:00;;;;;;;48.05;31.30;;;;;;;;;;763990;183;922010;-62
2021/10/29 02:56:26;;;;;;;47.73;28.93;;;;;;;;;;767178;183;921574;-61
2021/10/29 02:58:52;;;;;;;43.37;27.50;;;;;;;;;;770142;183;919570;-62
2021/10/29 03:01:18;;;;;;;55.90;32.28;;;;;;;;;;760375;183;919831;-61
2021/10/29 03:03:44;;;;;;;51.67;34.20;;;;;;;;;;764836;183;919429;-62
2021/10/29 03:06:10;;;;;;;44.93;31.13;;;;;;;;;;771938;183;919526;-61
2021/10/29 03:08:35;;;;;;;48.00;30.13;;;;;;;;;;764634;183;922123;-61
2021/10/29 03:11:01;;;;;;;57.10;34.13;;;;;;;;;;763525;183;915756;-61
2021/10/29 03:13:27;;;;;;;50.57;31.50;;;;;;;;;;771038;183;916854;-60
2021/10/29 03:15:53;;;;;;;52.40;32.40;;;;;;;;;;765182;183;918359;-63
2021/10/29 03:18:19;;;;;;;58.63;34.20;;;;;;;;;;762631;183;919507;-62
2021/10/29 03:20:45;;;;;;;62.13;38.30;;;;;;;;;;766709;183;919156;-61
2021/10/29 03:23:12;;;;;;;61.03;37.97;;;;;;;;;;771078;180;918058;-61
2021/10/29 03:25:36;;;;;;;54.70;33.33;;;;;;;;;;761872;183;918798;-61
2021/10/29 03:28:02;;;;;;;55.63;32.87;;;;;;;;;;762672;183;918989;-62
2021/10/29 03:30:28;;;;;;;54.33;34.13;;;;;;;;;;769710;183;920711;-62
2021/10/29 03:32:54;;;;;;;53.10;31.40;;;;;;;;;;764133;183;919454;-63
2021/10/29 03:35:20;;;;;;;57.17;32.43;;;;;;;;;;763740;183;919175;-63
2021/10/29 03:38:00;;;;;;;58.38;35.78;;;;;;;;;;772025;182;930252;-61
2021/10/29 03:40:22;;;;;;;68.03;33.10;;;;;;;;;;764756;182;919253;-62
2021/10/29 03:42:48;;;;;;;58.23;32.30;;;;;;;;;;764779;183;921684;-62
2021/10/29 03:45:07;;;;;;;54.33;32.73;;;;;;;;;;764134;183;920705;-61
2021/10/29 03:47:38;;;;;;;50.63;32.47;;;;;;;;;;769742;181;918861;-65
2021/10/29 03:52:35;;;;;;;47.63;31.80;;;;;;;;;;765027;182;921235;-62
2021/10/29 03:54:57;;;;;;;51.33;30.77;;;;;;;;;;768665;183;918783;-62
2021/10/29 03:57:24;;;;;;;46.13;29.45;;;;;;;;;;764422;183;918064;-62
2021/10/29 03:59:47;;;;;;;42.23;29.20;;;;;;;;;;764863;183;921720;-62
2021/10/29 04:02:12;;;;;;;53.80;33.33;;;;;;;;;;763048;183;915887;-62
2021/10/29 04:04:38;;;;;;;47.60;29.20;;;;;;;;;;766995;181;915446;-62
2021/10/29 04:07:04;;;;;;;45.43;28.77;;;;;;;;;;767691;183;919529;-63
2021/10/29 04:09:30;;;;;;;44.43;30.13;;;;;;;;;;764123;183;918398;-63
2021/10/29 04:11:56;;;;;;;46.33;29.37;;;;;;;;;;771695;183;918206;-63
2021/10/29 04:14:26;;;;;;;43.70;27.60;;;;;;;;;;764631;183;918521;-64
2021/10/29 04:16:47;;;;;;;45.13;26.83;;;;;;;;;;762611;183;918793;-64
2021/10/29 04:19:14;;;;;;;38.73;26.67;;;;;;;;;;768251;183;920356;-63
2021/10/29 04:21:39;;;;;;;41.55;24.52;;;;;;;;;;764266;183;919582;-64
2021/10/29 04:24:05;;;;;;;51.07;28.70;;;;;;;;;;763658;183;918730;-63
2021/10/29 04:26:32;;;;;;;42.03;25.47;;;;;;;;;;767420;183;919137;-64
2021/10/29 04:28:57;;;;;;;45.20;30.00;;;;;;;;;;764172;183;935584;-64
2021/10/29 04:31:25;;;;;;;50.53;28.80;;;;;;;;;;764166;183;919190;-65
2021/10/29 04:33:49;;;;;;;43.03;26.77;;;;;;;;;;766090;183;919685;-64
2021/10/29 04:36:14;;;;;;;39.80;24.47;;;;;;;;;;769838;183;919857;-64
2021/10/29 04:38:40;;;;;;;38.40;23.20;;;;;;;;;;761604;183;918826;-67
2021/10/29 04:41:06;;;;;;;39.23;25.90;;;;;;;;;;760211;183;919734;-64
2021/10/29 04:43:32;;;;;;;35.77;22.67;;;;;;;;;;766244;183;938436;-66
2021/10/29 04:45:58;;;;;;;33.10;18.60;;;;;;;;;;765705;183;919898;-63
2021/10/29 04:48:24;;;;;;;36.55;20.33;;;;;;;;;;765752;181;985800;-65
2021/10/29 04:50:49;;;;;;;32.90;21.40;;;;;;;;;;768580;182;920225;-65
2021/10/29 04:53:15;;;;;;;28.00;19.12;;;;;;;;;;767234;183;918846;-64
2021/10/29 04:55:41;;;;;;;30.07;18.60;;;;;;;;;;764553;183;918544;-65
2021/10/29 04:58:08;;;;;;;31.27;18.97;;;;;;;;;;765284;183;937225;-65
2021/10/29 05:00:33;;;;;;;28.10;18.83;;;;;;;;;;760596;183;918590;-63
2021/10/29 05:02:59;;;;;;;28.70;19.80;;;;;;;;;;762450;183;919532;-64
2021/10/29 05:05:25;;;;;;;34.20;20.92;;;;;;;;;;764050;183;919855;-64
2021/10/29 05:07:50;;;;;;;34.10;19.70;;;;;;;;;;769149;183;1071640;-64
2021/10/29 05:10:16;;;;;;;34.27;20.47;;;;;;;;;;765451;183;920101;-64
2021/10/29 05:12:43;;;;;;;33.43;22.13;;;;;;;;;;764558;183;918780;-63
2021/10/29 05:15:10;;;;;;;26.27;18.43;;;;;;;;;;768578;183;918582;-64
2021/10/29 05:17:34;;;;;;;38.00;20.90;;;;;;;;;;764081;183;922540;-64
2021/10/29 05:20:00;;;;;;;29.73;18.90;;;;;;;;;;765397;183;918713;-64
2021/10/29 05:22:26;;;;;;;31.52;19.73;;;;;;;;;;765003;183;1014861;-63
2021/10/29 05:24:52;;;;;;;31.47;19.90;;;;;;;;;;768254;180;921719;-65
2021/10/29 05:27:18;;;;;;;33.97;19.63;;;;;;;;;;760274;183;920624;-64
2021/10/29 05:29:44;;;;;;;30.65;19.60;;;;;;;;;;764388;183;1023086;-65
2021/10/29 05:32:10;;;;;;;31.70;19.97;;;;;;;;;;769173;183;916466;-66
2021/10/29 05:34:36;;;;;;;28.50;17.07;;;;;;;;;;763825;183;918930;-66
2021/10/29 05:37:01;;;;;;;30.23;19.33;;;;;;;;;;763986;183;917737;-66
2021/10/29 05:39:27;;;;;;;29.10;19.60;;;;;;;;;;769590;183;911667;-63
2021/10/29 05:41:53;;;;;;;23.95;15.88;;;;;;;;;;761485;183;910968;-63
2021/10/29 05:44:19;;;;;;;34.60;17.77;;;;;;;;;;763716;183;912098;-65
2021/10/29 05:46:46;;;;;;;28.20;15.80;;;;;;;;;;768502;183;919256;-64
2021/10/29 05:49:12;;;;;;;22.93;15.17;;;;;;;;;;764150;183;919506;-64
2021/10/29 05:51:43;;;;;;;29.07;19.57;;;;;;;;;;762379;183;919451;-65
2021/10/29 05:56:34;;;;;;;27.10;17.40;;;;;;;;;;769936;183;919307;-65
2021/10/29 05:59:04;;;;;;;27.57;17.33;;;;;;;;;;763801;181;922829;-65
2021/10/29 06:01:26;;;;;;;28.27;17.73;;;;;;;;;;765592;182;919146;-63
2021/10/29 06:03:52;;;;;;;31.73;17.90;;;;;;;;;;771464;183;918939;-64
2021/10/29 06:06:18;;;;;;;21.97;15.77;;;;;;;;;;765870;183;919440;-65
2021/10/29 06:08:44;;;;;;;24.33;17.43;;;;;;;;;;765739;182;919383;-64
2021/10/29 06:11:09;;;;;;;27.67;17.83;;;;;;;;;;766911;183;909868;-64
2021/10/29 06:13:35;;;;;;;30.00;18.63;;;;;;;;;;770767;180;919259;-67
2021/10/29 06:16:01;;;;;;;32.55;19.45;;;;;;;;;;763813;183;918516;-65
2021/10/29 06:18:27;;;;;;;28.47;18.70;;;;;;;;;;763972;183;1021971;-66
2021/10/29 06:20:55;;;;;;;28.53;17.93;;;;;;;;;;769323;183;919473;-64
2021/10/29 06:23:22;;;;;;;28.42;18.87;;;;;;;;;;766657;183;919508;-64
2021/10/29 06:25:47;;;;;;;30.73;17.40;;;;;;;;;;763696;183;919423;-64
2021/10/29 06:28:17;;;;;;;24.07;16.77;;;;;;;;;;770191;183;918524;-64
2021/10/29 06:30:40;;;;;;;24.83;16.67;;;;;;;;;;768723;183;623847;-63
2021/10/29 06:33:05;;;;;;;30.23;17.83;;;;;;;;;;766415;183;918900;-63
2021/10/29 06:35:31;;;;;;;32.77;15.93;;;;;;;;;;768256;183;630524;-65
2021/10/29 06:37:58;;;;;;;27.10;16.80;;;;;;;;;;772152;183;618153;-62
2021/10/29 06:40:24;;;;;;;25.03;16.50;;;;;;;;;;767116;180;695979;-64
2021/10/29 06:42:52;;;;;;;30.73;17.50;;;;;;;;;;767935;183;633671;-64
2021/10/29 06:48:16;;;;;;;30.40;16.83;;;;;;;;;;763905;183;927773;-63
2021/10/29 07:00:50;;;;;;;24.50;16.00;;;;;;;;;;764720;183;919973;-64
2021/10/29 07:41:17;;;;;;;27.70;14.17;;;;;;;;;;764730;183;626648;-65
2021/10/29 07:46:16;;;;;;;21.33;12.70;;;;;;;;;;771355;183;625293;-67
2021/10/29 07:48:42;;;;;;;17.23;12.23;;;;;;;;;;771755;183;630484;-66
2021/10/29 07:51:08;;;;;;;20.20;12.57;;;;;;;;;;771710;183;618498;-66
2021/10/29 07:53:34;;;;;;;21.60;12.90;;;;;;;;;;766926;183;628692;-66
2021/10/29 07:56:00;;;;;;;25.83;14.80;;;;;;;;;;770039;183;629419;-66
2021/10/29 07:58:25;;;;;;;18.10;11.93;;;;;;;;;;770339;183;629777;-66
2021/10/29 08:00:51;;;;;;;17.20;12.83;;;;;;;;;;769271;183;918289;-66
2021/10/29 08:03:17;;;;;;;22.90;11.23;;;;;;;;;;761755;183;920370;-66
2021/10/29 08:05:45;;;;;;;18.67;12.27;;;;;;;;;;763952;183;935095;-66
2021/10/29 08:08:08;;;;;;;21.47;12.23;;;;;;;;;;768310;183;918977;-66
2021/10/29 08:10:34;;;;;;;20.63;12.33;;;;;;;;;;765747;183;918876;-66
2021/10/29 08:13:00;;;;;;;19.27;9.52;;;;;;;;;;757093;183;2146074;-67
2021/10/29 08:15:26;;;;;;;16.20;9.30;;;;;;;;;;770928;183;918990;-66
2021/10/29 08:17:52;;;;;;;18.70;10.27;;;;;;;;;;763088;183;919207;-67
2021/10/29 08:20:18;;;;;;;15.27;9.87;;;;;;;;;;764609;183;919569;-67
2021/10/29 08:22:44;;;;;;;21.40;11.05;;;;;;;;;;766545;182;920009;-65
2021/10/29 08:25:10;;;;;;;17.27;10.80;;;;;;;;;;767634;179;919544;-67
2021/10/29 08:27:35;;;;;;;16.83;11.27;;;;;;;;;;766248;182;919997;-68
2021/10/29 08:30:01;;;;;;;14.43;10.00;;;;;;;;;;764361;183;919397;-67
2021/10/29 08:32:27;;;;;;;20.17;9.70;;;;;;;;;;768150;183;919566;-67
2021/10/29 08:34:53;;;;;;;18.97;10.57;;;;;;;;;;764238;183;919853;-67
2021/10/29 08:37:19;;;;;;;18.08;11.00;;;;;;;;;;766289;183;918588;-66
2021/10/29 08:39:45;;;;;;;14.03;10.00;;;;;;;;;;768560;183;919225;-67
2021/10/29 08:42:11;;;;;;;15.63;9.83;;;;;;;;;;758849;183;1568398;-68
2021/10/29 08:44:36;;;;;;;13.23;9.93;;;;;;;;;;762823;183;919220;-68
2021/10/29 08:47:02;;;;;;;13.77;8.15;;;;;;;;;;770648;183;921389;-69
2021/10/29 08:49:28;;;;;;;13.40;7.80;;;;;;;;;;763139;183;918404;-67
2021/10/29 08:51:54;;;;;;;14.10;8.90;;;;;;;;;;765219;183;919011;-67
2021/10/29 08:54:20;;;;;;;12.90;8.83;;;;;;;;;;763735;183;919378;-67
2021/10/29 08:56:46;;;;;;;12.57;9.23;;;;;;;;;;769596;183;918364;-68
2021/10/29 08:59:15;;;;;;;10.43;7.73;;;;;;;;;;761588;183;918439;-68
2021/10/29 09:01:49;;;;;;;9.47;7.47;;;;;;;;;;762767;183;918869;-67
2021/10/29 09:04:15;;;;;;;13.07;7.50;;;;;;;;;;761950;183;918640;-68
2021/10/29 09:06:58;;;;;;;16.30;9.33;;;;;;;;;;760257;183;918539;-69
2021/10/29 09:12:08;;;;;;;14.60;7.90;;;;;;;;;;763233;183;920336;-69
2021/10/29 09:17:13;;;;;;;11.67;8.10;;;;;;;;;;763295;183;918078;-69
2021/10/29 09:32:10;;;;;;;12.53;8.53;;;;;;;;;;764785;183;916062;-69
2021/10/29 09:34:35;;;;;;;13.00;7.90;;;;;;;;;;774007;180;914374;-70
2021/10/29 09:37:01;;;;;;;9.80;7.33;;;;;;;;;;766337;182;915816;-69
2021/10/29 09:39:27;;;;;;;12.80;8.47;;;;;;;;;;767527;183;916474;-69
2021/10/29 09:41:59;;;;;;;10.27;8.87;;;;;;;;;;768251;183;1223126;-70
2021/10/29 09:44:24;;;;;;;10.50;7.43;;;;;;;;;;764192;183;915207;-70
2021/10/29 09:47:01;;;;;;;14.20;7.10;;;;;;;;;;763991;183;911969;-70
2021/10/29 09:49:31;;;;;;;10.90;7.72;;;;;;;;;;768882;183;917105;-70
2021/10/29 09:52:06;;;;;;;13.80;8.53;;;;;;;;;;770124;183;915033;-69
2021/10/29 09:54:27;;;;;;;15.37;8.27;;;;;;;;;;762062;183;918779;-70
2021/10/29 09:56:53;;;;;;;8.93;6.97;;;;;;;;;;762247;183;917132;-70
2021/10/29 09:59:13;;;;;;;12.20;6.77;;;;;;;;;;764519;183;915565;-72
2021/10/29 10:01:39;;;;;;;11.60;7.95;;;;;;;;;;769700;181;914272;-70
2021/10/29 10:04:05;;;;;;;15.13;7.60;;;;;;;;;;766339;183;922796;-70
2021/10/29 10:06:31;;;;;;;10.87;8.47;;;;;;;;;;765564;183;911696;-70
2021/10/29 10:08:57;;;;;;;10.47;7.83;;;;;;;;;;768529;183;915319;-69
2021/10/29 10:11:25;;;;;;;17.30;8.10;;;;;;;;;;762659;183;918090;-72
2021/10/29 10:13:50;;;;;;;22.00;9.47;;;;;;;;;;767852;182;907658;-69
2021/10/29 10:16:16;;;;;;;11.13;8.10;;;;;;;;;;770643;183;910041;-70
2021/10/29 10:18:42;;;;;;;9.40;6.60;;;;;;;;;;764978;183;915381;-73
2021/10/29 10:21:07;;;;;;;12.87;8.17;;;;;;;;;;763112;183;916632;-71
2021/10/29 10:23:36;;;;;;;14.03;9.03;;;;;;;;;;763265;183;914946;-69
2021/10/29 10:40:13;;;;;;;10.10;6.83;;;;;;;;;;759535;183;914686;-71
2021/10/29 10:46:47;;;;;;;11.57;7.60;;;;;;;;;;765880;182;615321;-71
2021/10/29 10:49:12;;;;;;;14.80;8.93;;;;;;;;;;769278;182;938524;-71
2021/10/29 10:51:43;;;;;;;9.00;6.90;;;;;;;;;;765441;183;918685;-71
2021/10/29 10:54:06;;;;;;;12.20;7.27;;;;;;;;;;770536;183;918126;-73
2021/10/29 10:56:41;;;;;;;14.70;6.90;;;;;;;;;;770367;183;618455;-71
2021/10/29 10:59:12;;;;;;;10.70;7.10;;;;;;;;;;763876;183;917612;-70
2021/10/29 11:02:21;;;;;;;10.85;7.20;;;;;;;;;;764477;183;917838;-71
2021/10/29 11:07:12;;;;;;;9.67;6.80;;;;;;;;;;763582;183;921875;-73
2021/10/29 11:12:08;;;;;;;15.07;7.62;;;;;;;;;;770605;183;917641;-70
2021/10/29 11:14:33;;;;;;;10.57;7.00;;;;;;;;;;764275;183;916175;-72
2021/10/29 11:17:00;;;;;;;10.90;7.03;;;;;;;;;;767437;182;883660;-69
2021/10/29 11:19:34;;;;;;;10.93;7.10;;;;;;;;;;769573;183;913570;-72
2021/10/29 11:21:51;;;;;;;12.32;7.40;;;;;;;;;;765928;183;918977;-73
2021/10/29 11:24:18;;;;;;;12.50;7.80;;;;;;;;;;764924;183;918258;-71
2021/10/29 11:26:43;;;;;;;10.77;7.65;;;;;;;;;;764221;183;918262;-72
2021/10/29 11:29:08;;;;;;;12.20;6.93;;;;;;;;;;771321;183;617394;-73
2021/10/29 11:31:36;;;;;;;11.27;7.40;;;;;;;;;;766291;183;909226;-74
2021/10/29 11:34:02;;;;;;;13.50;7.67;;;;;;;;;;766895;183;619247;-72
2021/10/29 11:36:28;;;;;;;13.00;7.87;;;;;;;;;;769827;183;918043;-72
2021/10/29 11:38:54;;;;;;;9.97;6.87;;;;;;;;;;764901;183;920611;-70
2021/10/29 11:41:21;;;;;;;13.30;7.20;;;;;;;;;;761825;183;1100884;-72
2021/10/29 11:43:46;;;;;;;14.40;6.93;;;;;;;;;;764329;183;918509;-71
2021/10/29 11:46:13;;;;;;;11.57;8.53;;;;;;;;;;766571;182;918241;-71
2021/10/29 11:48:44;;;;;;;11.97;7.80;;;;;;;;;;765653;183;918932;-72
2021/10/29 11:51:10;;;;;;;11.10;6.50;;;;;;;;;;759105;183;1429935;-72
2021/10/29 11:53:54;;;;;;;10.07;7.27;;;;;;;;;;770437;183;877179;-72
2021/10/29 11:56:25;;;;;;;10.40;6.90;;;;;;;;;;769308;183;917095;-71
2021/10/29 11:58:56;;;;;;;11.93;6.77;;;;;;;;;;766943;182;918476;-73
2021/10/29 12:01:55;;;;;;;12.13;6.83;;;;;;;;;;765717;182;912794;-70
2021/10/29 12:09:14;;;;;;;11.53;7.67;;;;;;;;;;753306;183;1000506;-71
2021/10/29 12:11:40;;;;;;;10.07;7.10;;;;;;;;;;769068;183;921226;-72
2021/10/29 12:14:06;;;;;;;9.30;7.53;;;;;;;;;;767156;183;919872;-71
2021/10/29 12:16:32;;;;;;;9.43;6.53;;;;;;;;;;766247;183;946352;-72
2021/10/29 12:19:01;;;;;;;8.90;7.43;;;;;;;;;;763203;183;935162;-72
2021/10/29 12:21:27;;;;;;;9.53;6.87;;;;;;;;;;770431;183;919860;-73
2021/10/29 12:23:51;;;;;;;10.60;6.90;;;;;;;;;;766914;182;744383;-72
2021/10/29 12:26:16;;;;;;;8.35;6.22;;;;;;;;;;766365;183;918615;-71
2021/10/29 12:28:43;;;;;;;15.30;7.70;;;;;;;;;;768641;183;1011295;-70
2021/10/29 12:31:17;;;;;;;10.53;6.90;;;;;;;;;;765216;183;918875;-73
2021/10/29 12:39:09;;;;;;;15.63;7.67;;;;;;;;;;768560;183;932479;-71
2021/10/29 12:54:06;;;;;;;14.07;7.40;;;;;;;;;;768961;182;922268;-71
2021/10/29 12:59:00;;;;;;;10.20;7.23;;;;;;;;;;768256;183;915009;-72
2021/10/29 13:03:53;;;;;;;12.43;7.47;;;;;;;;;;769280;183;920798;-71
2021/10/29 13:06:21;;;;;;;12.47;8.70;;;;;;;;;;762642;183;1108751;-70
2021/10/29 13:08:49;;;;;;;11.90;7.43;;;;;;;;;;767717;181;806274;-70
2021/10/29 13:11:16;;;;;;;16.57;7.23;;;;;;;;;;768511;182;917816;-72
2021/10/29 13:13:52;;;;;;;11.53;6.60;;;;;;;;;;773087;180;938154;-70
2021/10/29 13:16:16;;;;;;;10.70;7.50;;;;;;;;;;767181;183;918516;-72
2021/10/29 13:18:56;;;;;;;10.38;6.90;;;;;;;;;;764265;183;916982;-72
2021/10/29 13:21:55;;;;;;;10.80;6.90;;;;;;;;;;761495;183;997516;-70
2021/10/29 13:24:07;;;;;;;10.60;7.57;;;;;;;;;;768522;183;939044;-70
2021/10/29 13:28:58;;;;;;;11.67;6.90;;;;;;;;;;765931;182;918489;-70
2021/10/29 13:36:54;;;;;;;9.60;7.77;;;;;;;;;;763845;183;919286;-70
2021/10/29 13:52:01;;;;;;;13.87;7.33;;;;;;;;;;764919;183;913116;-69
2021/10/29 13:54:32;;;;;;;14.23;7.57;;;;;;;;;;766898;183;919597;-70
2021/10/29 13:57:04;;;;;;;8.90;6.40;;;;;;;;;;763064;183;1019538;-70
2021/10/29 13:59:31;;;;;;;10.90;6.30;;;;;;;;;;764712;183;727995;-69
2021/10/29 14:01:56;;;;;;;8.90;6.20;;;;;;;;;;762621;183;923599;-70
2021/10/29 14:24:25;;;;;;;14.40;8.40;;;;;;;;;;767654;182;885876;-71
2021/10/29 14:30:04;;;;;;;9.68;7.87;;;;;;;;;;765889;183;918110;-70
2021/10/29 14:32:29;;;;;;;11.23;7.83;;;;;;;;;;768220;183;919481;-71
2021/10/29 14:34:58;;;;;;;11.13;7.17;;;;;;;;;;771540;183;615248;-70
2021/10/29 14:37:32;;;;;;;10.30;7.00;;;;;;;;;;769163;183;635901;-71
2021/10/29 14:40:00;;;;;;;14.03;7.10;;;;;;;;;;767526;183;630344;-71
2021/10/29 14:42:28;;;;;;;11.03;6.70;;;;;;;;;;767488;183;673375;-72
2021/10/29 14:45:24;;;;;;;10.40;6.20;;;;;;;;;;771280;180;624072;-72
2021/10/29 14:48:10;;;;;;;11.47;6.13;;;;;;;;;;769109;183;637042;-70
2021/10/29 14:50:31;;;;;;;12.03;10.07;;;;;;;;;;767786;183;631562;-69
2021/10/29 15:00:22;;;;;;;12.10;7.50;;;;;;;;;;761725;183;919342;-70
2021/10/29 15:03:36;;;;;;;8.90;6.67;;;;;;;;;;755680;183;878723;-70
2021/10/29 15:06:10;;;;;;;14.63;6.87;;;;;;;;;;764649;183;917015;-72
2021/10/29 15:16:08;;;;;;;16.87;7.57;;;;;;;;;;765269;183;946906;-71
2021/10/29 15:18:43;;;;;;;11.17;7.60;;;;;;;;;;768563;183;660540;-70
2021/10/29 15:26:21;;;;;;;13.40;9.40;;;;;;;;;;761535;182;918607;-70
2021/10/29 15:31:10;;;;;;;11.60;6.53;;;;;;;;;;766626;182;625136;-70
2021/10/29 15:33:35;;;;;;;11.07;7.90;;;;;;;;;;771505;182;627410;-70
2021/10/29 15:46:20;;;;;;;15.20;7.70;;;;;;;;;;770351;183;919301;-69
2021/10/29 15:48:48;;;;;;;14.33;8.53;;;;;;;;;;775040;183;624033;-71
2021/10/29 15:51:09;;;;;;;11.70;7.90;;;;;;;;;;764584;183;915294;-69
2021/10/29 15:53:35;;;;;;;16.03;7.93;;;;;;;;;;764150;183;1016344;-68
2021/10/29 15:56:10;;;;;;;16.93;9.13;;;;;;;;;;770458;183;915268;-69
2021/10/29 15:58:36;;;;;;;12.17;8.40;;;;;;;;;;761421;183;920090;-68
2021/10/29 16:01:07;;;;;;;18.27;10.07;;;;;;;;;;762516;183;1020182;-68
2021/10/29 16:03:37;;;;;;;15.13;9.30;;;;;;;;;;762360;183;919065;-68
2021/10/29 16:18:32;;;;;;;18.53;10.03;;;;;;;;;;765992;183;921082;-68
2021/10/29 16:20:58;;;;;;;15.13;10.53;;;;;;;;;;763795;183;919156;-68
2021/10/29 16:23:28;;;;;;;21.80;14.17;;;;;;;;;;764570;183;917244;-68
2021/10/29 16:25:56;;;;;;;28.17;15.10;;;;;;;;;;765470;183;915743;-68
2021/10/29 16:28:20;;;;;;;22.00;16.90;;;;;;;;;;763259;183;902018;-66
2021/10/29 16:30:44;;;;;;;25.55;15.43;;;;;;;;;;762482;183;925232;-67
2021/10/29 16:35:41;;;;;;;18.90;13.83;;;;;;;;;;769129;183;1021178;-67
2021/10/29 16:38:07;;;;;;;22.17;14.57;;;;;;;;;;761718;183;920279;-66
2021/10/29 16:40:33;;;;;;;23.70;14.20;;;;;;;;;;763921;183;919398;-66
2021/10/29 16:42:59;;;;;;;32.60;18.80;;;;;;;;;;768497;181;918872;-66
2021/10/29 16:45:24;;;;;;;25.80;15.83;;;;;;;;;;767347;182;919083;-66
2021/10/29 16:47:50;;;;;;;23.97;16.83;;;;;;;;;;764402;182;918744;-66
2021/10/29 16:50:16;;;;;;;17.60;13.50;;;;;;;;;;772499;182;918668;-66
2021/10/29 16:52:42;;;;;;;32.10;15.97;;;;;;;;;;766986;183;919184;-66
2021/10/29 16:55:08;;;;;;;23.63;16.80;;;;;;;;;;765164;182;919272;-66
2021/10/29 16:57:34;;;;;;;19.87;13.53;;;;;;;;;;766297;183;919617;-66
2021/10/29 17:00:02;;;;;;;22.57;14.07;;;;;;;;;;769902;183;918601;-66
2021/10/29 17:02:26;;;;;;;17.95;11.82;;;;;;;;;;764505;183;918665;-65
2021/10/29 17:04:52;;;;;;;22.03;15.50;;;;;;;;;;764224;183;918721;-66
2021/10/29 17:07:17;;;;;;;19.80;15.57;;;;;;;;;;762550;183;1566462;-65
2021/10/29 17:09:43;;;;;;;19.00;13.70;;;;;;;;;;765368;183;919196;-65
2021/10/29 17:12:09;;;;;;;25.83;16.67;;;;;;;;;;764641;183;941819;-65
2021/10/29 17:14:35;;;;;;;30.83;15.23;;;;;;;;;;770496;183;918722;-65
2021/10/29 17:17:01;;;;;;;21.80;16.67;;;;;;;;;;763933;183;919447;-65
2021/10/29 17:19:27;;;;;;;25.93;16.87;;;;;;;;;;764116;183;917986;-65
2021/10/29 17:21:52;;;;;;;23.37;16.80;;;;;;;;;;760963;183;919844;-65
2021/10/29 17:24:19;;;;;;;13.80;10.43;;;;;;;;;;769861;183;918134;-66
2021/10/29 17:26:44;;;;;;;24.80;14.90;;;;;;;;;;766081;183;919573;-65
2021/10/29 17:29:10;;;;;;;20.58;13.05;;;;;;;;;;761543;183;918935;-64
2021/10/29 17:31:36;;;;;;;18.00;12.20;;;;;;;;;;770774;183;917769;-64
2021/10/29 17:34:02;;;;;;;17.60;13.20;;;;;;;;;;763272;183;920131;-64
2021/10/29 17:36:29;;;;;;;18.17;12.70;;;;;;;;;;763072;183;1013358;-67
2021/10/29 17:38:53;;;;;;;19.50;13.67;;;;;;;;;;768305;183;919737;-65
2021/10/29 17:41:19;;;;;;;22.27;13.40;;;;;;;;;;763553;183;919611;-65
2021/10/29 17:43:45;;;;;;;15.25;12.18;;;;;;;;;;759094;183;1738231;-64
2021/10/29 17:46:11;;;;;;;16.10;11.40;;;;;;;;;;763765;183;918665;-64